Time;durP1;ratioP1;P1;durP2;ratioP2;P2;SDS_P1;SDS_P2;PMS_P1;PMS_P2;Temp;Humidity;BMP_temperature;BMP_pressure;BME280_temperature;BME280_humidity;BME280_pressure;Samples;Min_cycle;Max_cycle;Signal;HPM_P1;HPM_P2
2021/11/30 00:01:03;;;;;;;4.20;3.80;;;1.10;92.50;;;;;;5055385;28;20248;-85
2021/11/30 00:03:33;;;;;;;5.97;3.87;;;1.10;92.40;;;;;;5051672;28;20198;-87
2021/11/30 00:06:01;;;;;;;5.90;4.07;;;1.10;92.30;;;;;;5059662;28;20225;-86
2021/11/30 00:08:29;;;;;;;7.27;3.73;;;1.20;92.10;;;;;;5052081;28;20206;-87
2021/11/30 00:10:58;;;;;;;4.20;3.73;;;1.20;92.10;;;;;;5057319;28;20221;-89
2021/11/30 00:13:25;;;;;;;4.83;4.20;;;1.10;92.40;;;;;;5060064;28;20197;-87
2021/11/30 00:15:56;;;;;;;5.00;3.83;;;1.10;92.60;;;;;;5061942;28;20230;-88
2021/11/30 00:18:24;;;;;;;7.37;3.80;;;1.10;92.60;;;;;;5060228;28;20224;-87
2021/11/30 00:20:51;;;;;;;4.53;3.60;;;1.00;92.80;;;;;;5057099;28;20229;-87
2021/11/30 00:23:19;;;;;;;4.87;3.63;;;1.10;92.20;;;;;;5049063;28;20200;-87
2021/11/30 00:25:46;;;;;;;5.70;3.43;;;1.10;92.60;;;;;;5053320;28;20228;-87
2021/11/30 00:28:13;;;;;;;4.03;3.33;;;1.10;92.30;;;;;;5045871;28;20288;-86
2021/11/30 00:30:41;;;;;;;4.23;2.90;;;1.10;92.50;;;;;;5050922;28;20470;-87
2021/11/30 00:33:10;;;;;;;4.07;3.20;;;1.00;92.60;;;;;;5054314;28;20220;-87
2021/11/30 00:35:37;;;;;;;4.33;3.20;;;1.00;92.20;;;;;;5055308;28;20688;-86
2021/11/30 00:38:05;;;;;;;4.80;3.07;;;1.00;92.50;;;;;;5048714;28;20225;-86
2021/11/30 00:40:33;;;;;;;4.17;2.83;;;1.10;92.20;;;;;;5059656;28;20564;-87
2021/11/30 00:43:01;;;;;;;5.33;3.00;;;1.10;92.00;;;;;;5051405;28;20205;-88
2021/11/30 00:45:36;;;;;;;3.83;2.90;;;1.10;92.30;;;;;;5058477;28;20220;-91
2021/11/30 00:48:07;;;;;;;4.50;2.87;;;1.00;93.10;;;;;;5061796;28;20205;-87
2021/11/30 00:50:38;;;;;;;3.30;2.90;;;0.90;92.80;;;;;;5057991;28;20232;-87
2021/11/30 00:53:06;;;;;;;3.70;2.80;;;0.90;92.80;;;;;;5055528;28;20198;-88
2021/11/30 00:55:33;;;;;;;4.20;2.80;;;1.00;92.70;;;;;;5051071;28;20578;-89
2021/11/30 00:58:00;;;;;;;3.17;2.83;;;1.00;92.60;;;;;;5051519;28;20584;-87
2021/11/30 01:00:27;;;;;;;4.70;2.90;;;1.00;92.80;;;;;;5052172;28;20228;-90
2021/11/30 01:02:54;;;;;;;3.17;2.87;;;1.10;92.60;;;;;;5047810;28;20232;-87
2021/11/30 01:05:21;;;;;;;5.20;2.53;;;1.10;92.70;;;;;;5050994;28;20214;-87
2021/11/30 01:07:49;;;;;;;3.73;3.17;;;1.10;92.70;;;;;;5056409;28;20234;-85
2021/11/30 01:10:18;;;;;;;3.17;2.77;;;1.00;93.10;;;;;;5052709;28;20227;-86
2021/11/30 01:12:45;;;;;;;3.43;2.93;;;0.90;93.80;;;;;;5053657;28;20205;-86
2021/11/30 01:15:15;;;;;;;4.10;3.20;;;1.00;93.60;;;;;;5054661;28;20227;-89
2021/11/30 01:17:43;;;;;;;3.80;2.83;;;1.00;94.10;;;;;;5052128;28;20243;-85
2021/11/30 01:20:12;;;;;;;3.63;3.13;;;0.90;94.50;;;;;;5051014;28;20221;-86
2021/11/30 01:22:40;;;;;;;4.20;3.37;;;0.90;95.20;;;;;;5048777;28;20205;-86
2021/11/30 01:25:10;;;;;;;6.43;3.43;;;0.80;95.50;;;;;;5048230;28;20595;-86
2021/11/30 01:27:37;;;;;;;3.20;2.90;;;0.90;95.30;;;;;;5046941;28;20207;-89
2021/11/30 01:30:06;;;;;;;4.53;3.10;;;0.90;94.70;;;;;;5054728;28;20222;-86
2021/11/30 01:32:33;;;;;;;3.53;2.90;;;0.90;94.70;;;;;;5047330;28;20656;-87
2021/11/30 01:35:00;;;;;;;3.20;2.60;;;0.80;94.20;;;;;;5048589;28;20228;-86
2021/11/30 01:37:28;;;;;;;3.43;2.70;;;0.90;94.20;;;;;;5047226;28;20206;-86
2021/11/30 01:39:54;;;;;;;3.30;2.77;;;0.90;94.20;;;;;;5050189;28;20713;-87
2021/11/30 01:42:23;;;;;;;3.10;2.80;;;0.90;94.20;;;;;;5044852;28;20738;-88
2021/11/30 01:44:52;;;;;;;3.57;2.90;;;1.00;94.20;;;;;;5042458;28;20232;-86
2021/11/30 01:47:41;;;;;;;3.60;2.90;;;1.00;93.80;;;;;;5040510;28;20326;-89
2021/11/30 01:50:11;;;;;;;3.47;2.70;;;1.00;93.90;;;;;;5050055;28;20227;-86
2021/11/30 01:52:38;;;;;;;3.20;2.90;;;1.10;93.70;;;;;;5042650;28;20197;-87
2021/11/30 01:55:06;;;;;;;3.50;2.60;;;1.10;93.70;;;;;;5047874;28;20726;-87
2021/11/30 01:57:35;;;;;;;4.20;2.77;;;1.10;93.70;;;;;;5041855;28;20567;-86
2021/11/30 02:00:04;;;;;;;2.97;2.60;;;1.00;93.80;;;;;;5047264;28;20236;-87
2021/11/30 02:02:31;;;;;;;2.93;2.30;;;1.00;93.70;;;;;;5049618;28;20220;-86
2021/11/30 02:04:58;;;;;;;3.03;2.50;;;1.10;93.60;;;;;;5045677;28;20217;-86
2021/11/30 02:07:25;;;;;;;2.83;2.30;;;1.10;93.50;;;;;;5045127;28;20687;-86
2021/11/30 02:09:52;;;;;;;3.43;2.60;;;1.10;93.70;;;;;;5028768;28;20245;-86
2021/11/30 02:12:20;;;;;;;2.80;2.40;;;1.10;93.30;;;;;;5051171;28;20200;-87
2021/11/30 02:14:50;;;;;;;3.07;2.50;;;1.00;93.60;;;;;;5047581;28;20684;-87
2021/11/30 02:17:17;;;;;;;3.90;2.40;;;1.10;94.00;;;;;;5030685;28;20206;-87
2021/11/30 02:19:52;;;;;;;2.50;2.30;;;1.20;93.40;;;;;;5045250;28;20233;-86
2021/11/30 02:22:19;;;;;;;2.80;2.50;;;1.10;93.40;;;;;;5050216;28;20198;-86
2021/11/30 02:24:47;;;;;;;2.60;2.40;;;1.20;93.60;;;;;;5050402;28;20684;-87
2021/11/30 02:27:14;;;;;;;3.37;2.60;;;1.10;94.20;;;;;;5040908;28;20204;-86
2021/11/30 02:29:41;;;;;;;2.37;2.17;;;1.10;94.20;;;;;;5045875;28;20759;-88
2021/11/30 02:32:08;;;;;;;3.07;2.57;;;1.10;94.20;;;;;;5051852;28;20203;-87
2021/11/30 02:34:36;;;;;;;3.07;2.70;;;1.10;94.30;;;;;;5054745;28;20317;-85
2021/11/30 02:37:06;;;;;;;2.37;2.13;;;1.10;94.20;;;;;;5043469;28;20577;-85
2021/11/30 02:39:35;;;;;;;2.47;2.10;;;1.20;94.30;;;;;;5039248;28;20708;-87
2021/11/30 02:42:05;;;;;;;2.47;2.27;;;1.10;94.30;;;;;;5040815;28;20194;-89
2021/11/30 02:44:33;;;;;;;2.80;2.20;;;1.10;94.20;;;;;;5050208;28;20240;-87
2021/11/30 02:47:02;;;;;;;2.77;2.00;;;1.10;93.80;;;;;;5049063;28;20470;-86
2021/11/30 02:49:31;;;;;;;2.47;2.10;;;1.10;94.00;;;;;;5049600;28;20229;-86
2021/11/30 02:52:05;;;;;;;3.37;2.10;;;1.20;93.70;;;;;;5057037;28;20261;-86
2021/11/30 02:54:35;;;;;;;2.40;2.07;;;1.20;93.80;;;;;;5051727;28;20371;-88
2021/11/30 02:57:05;;;;;;;2.40;2.20;;;1.20;93.80;;;;;;5057238;28;20766;-87
2021/11/30 02:59:35;;;;;;;2.30;2.10;;;1.10;94.30;;;;;;5055082;28;20237;-87
2021/11/30 03:02:07;;;;;;;2.13;1.93;;;1.10;94.20;;;;;;5043395;28;20208;-87
2021/11/30 03:04:34;;;;;;;2.67;2.27;;;1.20;94.30;;;;;;5039824;28;20306;-87
2021/11/30 03:07:01;;;;;;;2.20;2.00;;;1.10;94.20;;;;;;5045637;28;20208;-87
2021/11/30 03:09:28;;;;;;;3.10;2.30;;;1.10;94.20;;;;;;5041096;28;20569;-87
2021/11/30 03:11:57;;;;;;;2.73;2.13;;;1.00;94.20;;;;;;5046674;28;20198;-87
2021/11/30 03:14:28;;;;;;;2.73;2.53;;;1.10;94.20;;;;;;5048406;28;20209;-88
2021/11/30 03:16:56;;;;;;;2.50;2.30;;;1.10;94.20;;;;;;5029723;28;20193;-88
2021/11/30 03:19:23;;;;;;;2.70;2.50;;;1.10;94.20;;;;;;5044054;28;20671;-89
2021/11/30 03:21:50;;;;;;;2.93;2.20;;;1.00;94.20;;;;;;5047120;28;20200;-85
2021/11/30 03:24:17;;;;;;;3.30;2.30;;;1.10;94.20;;;;;;5044522;28;20201;-87
2021/11/30 03:26:44;;;;;;;2.80;2.50;;;1.10;94.20;;;;;;5043390;28;20615;-85
2021/11/30 03:29:13;;;;;;;3.07;2.23;;;1.10;94.20;;;;;;5049581;28;20201;-84
2021/11/30 03:31:49;;;;;;;3.40;2.40;;;1.10;94.30;;;;;;5052084;28;20572;-85
2021/11/30 03:34:17;;;;;;;3.87;2.17;;;1.10;94.20;;;;;;5044856;28;20209;-88
2021/11/30 03:36:47;;;;;;;3.17;2.53;;;1.20;94.30;;;;;;5053868;28;20194;-85
2021/11/30 03:39:16;;;;;;;2.97;2.63;;;1.20;93.90;;;;;;5052540;28;20216;-88
2021/11/30 03:41:45;;;;;;;2.90;2.23;;;1.20;93.60;;;;;;5046864;28;20204;-86
2021/11/30 03:44:13;;;;;;;2.90;2.33;;;1.20;93.50;;;;;;5036307;28;20224;-85
2021/11/30 03:46:40;;;;;;;3.07;2.67;;;1.20;93.40;;;;;;5046448;28;20206;-86
2021/11/30 03:49:10;;;;;;;2.70;2.30;;;1.20;93.50;;;;;;5047118;28;20232;-87
2021/11/30 03:51:37;;;;;;;2.67;2.40;;;1.20;93.20;;;;;;5046248;28;20208;-89
2021/11/30 03:54:05;;;;;;;2.60;2.30;;;1.20;93.10;;;;;;5042519;28;20198;-86
2021/11/30 03:56:33;;;;;;;2.40;2.20;;;1.30;93.10;;;;;;5044824;28;20219;-91
2021/11/30 03:59:00;;;;;;;4.70;2.30;;;1.30;92.80;;;;;;5042676;28;20556;-86
2021/11/30 04:01:28;;;;;;;3.57;2.37;;;1.30;92.70;;;;;;5046497;28;20229;-87
2021/11/30 04:03:56;;;;;;;4.27;2.40;;;1.20;93.00;;;;;;5044180;28;20199;-87
2021/11/30 04:06:24;;;;;;;2.83;2.60;;;1.30;92.70;;;;;;5043328;28;20222;-87
2021/11/30 04:08:51;;;;;;;3.23;2.50;;;1.20;92.70;;;;;;5044795;28;20264;-86
2021/11/30 04:11:21;;;;;;;3.60;2.20;;;1.20;92.70;;;;;;5044389;28;20232;-85
2021/11/30 04:13:49;;;;;;;3.97;2.37;;;1.20;92.80;;;;;;5045567;28;20917;-86
2021/11/30 04:16:16;;;;;;;2.47;2.27;;;1.30;92.80;;;;;;5048183;28;20231;-86
2021/11/30 04:18:45;;;;;;;4.20;2.77;;;1.20;92.60;;;;;;5050269;28;20238;-86
2021/11/30 04:21:12;;;;;;;5.47;2.50;;;1.20;92.90;;;;;;5047883;28;20233;-88
2021/11/30 04:23:39;;;;;;;3.20;2.53;;;1.30;92.60;;;;;;5052688;28;20190;-89
2021/11/30 04:26:06;;;;;;;3.17;2.20;;;1.20;93.10;;;;;;5051430;28;20218;-86
2021/11/30 04:28:34;;;;;;;4.23;2.67;;;1.20;93.30;;;;;;5047268;28;20233;-89
2021/11/30 04:31:01;;;;;;;3.80;2.43;;;1.20;93.10;;;;;;5042160;28;20290;-86
2021/11/30 04:33:28;;;;;;;3.50;2.50;;;1.20;93.40;;;;;;5051988;28;20193;-88
2021/11/30 04:35:56;;;;;;;3.73;2.30;;;1.20;93.30;;;;;;5043745;28;20721;-85
2021/11/30 04:38:23;;;;;;;4.07;2.53;;;1.20;92.60;;;;;;5041081;28;20221;-86
2021/11/30 04:40:50;;;;;;;3.97;2.37;;;1.20;92.50;;;;;;5049611;28;20228;-87
2021/11/30 04:43:19;;;;;;;3.63;2.33;;;1.20;92.50;;;;;;5049683;28;20224;-89
2021/11/30 04:45:55;;;;;;;3.03;2.17;;;1.30;92.40;;;;;;5053999;28;20224;-85
2021/11/30 04:48:24;;;;;;;4.07;2.50;;;1.30;92.30;;;;;;5053970;28;20187;-89
2021/11/30 04:50:52;;;;;;;3.17;2.37;;;1.20;92.00;;;;;;5052494;28;20232;-86
2021/11/30 04:53:22;;;;;;;4.43;2.43;;;1.20;92.00;;;;;;5037923;28;20212;-85
2021/11/30 04:55:51;;;;;;;3.70;2.20;;;1.20;91.80;;;;;;5055004;28;20762;-88
2021/11/30 04:58:19;;;;;;;4.40;2.47;;;1.30;91.90;;;;;;5047906;28;20202;-87
2021/11/30 05:00:47;;;;;;;3.70;2.43;;;1.40;91.50;;;;;;5055007;28;20240;-86
2021/11/30 05:03:15;;;;;;;3.93;2.40;;;1.40;91.20;;;;;;5051902;28;20229;-87
2021/11/30 05:05:43;;;;;;;5.80;2.60;;;1.30;91.40;;;;;;5044367;28;20605;-87
2021/11/30 05:08:10;;;;;;;5.60;2.60;;;1.30;91.10;;;;;;5047918;28;20363;-87
2021/11/30 05:10:39;;;;;;;2.30;2.10;;;1.30;91.30;;;;;;5050810;28;20278;-87
2021/11/30 05:13:06;;;;;;;2.80;2.23;;;1.30;91.40;;;;;;5051635;28;20190;-87
2021/11/30 05:15:33;;;;;;;2.83;2.30;;;1.30;90.90;;;;;;5030407;28;20712;-87
2021/11/30 05:18:00;;;;;;;4.07;2.30;;;1.30;90.90;;;;;;5057259;28;20648;-84
2021/11/30 05:20:30;;;;;;;6.97;2.27;;;1.50;90.50;;;;;;5045725;28;20233;-91
2021/11/30 05:22:58;;;;;;;7.30;2.70;;;1.40;90.30;;;;;;5049798;28;20654;-87
2021/11/30 05:25:33;;;;;;;3.87;2.60;;;1.40;90.30;;;;;;5053826;28;20218;-87
2021/11/30 05:28:02;;;;;;;2.90;2.23;;;1.30;90.60;;;;;;5046873;28;20619;-87
2021/11/30 05:30:36;;;;;;;5.73;2.40;;;1.30;90.10;;;;;;5048908;28;20231;-87
2021/11/30 05:33:05;;;;;;;4.40;2.23;;;1.30;90.10;;;;;;5034401;28;20550;-87
2021/11/30 05:35:32;;;;;;;2.63;2.10;;;1.30;90.10;;;;;;5053413;28;20642;-87
2021/11/30 05:37:59;;;;;;;3.63;2.00;;;1.30;88.60;;;;;;5025658;28;20665;-87
2021/11/30 05:40:26;;;;;;;3.33;1.93;;;1.30;88.10;;;;;;5054830;28;20222;-87
2021/11/30 05:42:53;;;;;;;3.87;2.50;;;1.30;86.70;;;;;;5039888;28;20307;-87
2021/11/30 05:45:22;;;;;;;4.07;2.40;;;1.30;87.80;;;;;;5050241;28;20221;-87
2021/11/30 05:47:49;;;;;;;3.90;2.37;;;1.20;88.30;;;;;;5049959;28;20240;-90
2021/11/30 05:50:17;;;;;;;4.27;2.10;;;1.30;87.90;;;;;;5031189;28;20234;-87
2021/11/30 05:52:46;;;;;;;4.43;1.90;;;1.30;86.70;;;;;;5051977;28;20200;-90
2021/11/30 05:55:13;;;;;;;5.70;2.40;;;1.40;86.70;;;;;;5057563;28;20237;-84
2021/11/30 05:57:42;;;;;;;4.23;2.23;;;1.40;86.70;;;;;;5055105;28;20200;-85
2021/11/30 06:00:24;;;;;;;4.90;2.40;;;1.40;86.70;;;;;;5030762;28;20232;-88
2021/11/30 06:03:01;;;;;;;2.63;1.80;;;1.40;86.70;;;;;;5006635;28;20300;-86
2021/11/30 06:05:29;;;;;;;4.27;2.10;;;1.30;86.60;;;;;;5040691;28;20230;-88
2021/11/30 06:07:57;;;;;;;4.03;2.00;;;1.30;86.70;;;;;;5055890;28;20211;-87
2021/11/30 06:10:24;;;;;;;4.23;2.43;;;1.30;86.60;;;;;;5048183;28;20254;-85
2021/11/30 06:12:52;;;;;;;4.10;2.13;;;1.30;86.70;;;;;;5047132;28;20622;-86
2021/11/30 06:15:21;;;;;;;5.53;2.30;;;1.20;86.70;;;;;;5048025;28;20274;-87
2021/11/30 06:17:49;;;;;;;4.63;2.37;;;1.20;86.60;;;;;;5028206;28;20649;-90
2021/11/30 06:20:17;;;;;;;6.47;2.53;;;1.20;87.80;;;;;;5044307;28;20251;-90
2021/11/30 06:22:45;;;;;;;5.50;2.60;;;1.20;87.30;;;;;;5028384;28;20202;-88
2021/11/30 06:25:12;;;;;;;3.63;2.50;;;1.20;87.60;;;;;;5042943;28;20223;-87
2021/11/30 06:27:40;;;;;;;3.73;2.63;;;1.20;86.60;;;;;;5041891;28;20205;-85
2021/11/30 06:30:08;;;;;;;3.87;2.40;;;1.10;87.30;;;;;;5050929;28;20228;-84
2021/11/30 06:32:35;;;;;;;3.67;2.53;;;1.10;87.50;;;;;;5043404;28;20208;-83
2021/11/30 06:35:05;;;;;;;4.37;2.40;;;1.20;86.60;;;;;;5044260;28;20229;-85
2021/11/30 06:37:32;;;;;;;3.83;2.30;;;1.30;86.70;;;;;;5041600;28;20206;-85
2021/11/30 06:39:59;;;;;;;3.10;2.40;;;1.30;86.60;;;;;;5043077;28;20232;-81
2021/11/30 06:42:27;;;;;;;3.50;2.20;;;1.30;86.60;;;;;;5043093;28;20192;-84
2021/11/30 06:44:53;;;;;;;3.07;2.77;;;1.20;86.60;;;;;;5049895;28;20234;-80
2021/11/30 06:47:20;;;;;;;4.67;2.20;;;1.30;86.60;;;;;;5047579;28;20552;-82
2021/11/30 06:49:48;;;;;;;3.43;2.30;;;1.30;86.60;;;;;;5043173;28;20228;-88
2021/11/30 06:52:16;;;;;;;3.83;2.50;;;1.30;86.60;;;;;;5041082;28;20240;-80
2021/11/30 06:54:45;;;;;;;6.47;2.97;;;1.30;86.60;;;;;;5040480;28;20231;-80
2021/11/30 06:57:13;;;;;;;4.00;2.30;;;1.30;86.60;;;;;;5042376;28;20203;-83
2021/11/30 06:59:40;;;;;;;3.37;2.40;;;1.30;86.10;;;;;;5049450;28;20233;-84
2021/11/30 07:02:08;;;;;;;6.07;2.23;;;1.40;85.40;;;;;;5048530;28;20194;-84
2021/11/30 07:04:38;;;;;;;3.43;2.50;;;1.40;85.30;;;;;;5037611;28;20280;-82
2021/11/30 07:07:10;;;;;;;5.70;2.23;;;1.40;85.20;;;;;;5053208;28;20204;-82
2021/11/30 07:09:50;;;;;;;4.90;2.40;;;1.40;85.10;;;;;;5027493;28;20257;-84
2021/11/30 07:12:45;;;;;;;4.40;2.60;;;1.40;84.70;;;;;;5047249;28;20236;-82
2021/11/30 07:15:13;;;;;;;3.63;2.30;;;1.50;85.40;;;;;;5045603;28;20677;-86
2021/11/30 07:17:40;;;;;;;4.83;2.30;;;1.50;83.70;;;;;;5051026;28;20285;-83
2021/11/30 07:20:09;;;;;;;4.57;2.00;;;1.60;81.60;;;;;;5026026;28;20612;-84
2021/11/30 07:22:36;;;;;;;5.57;2.63;;;1.60;81.50;;;;;;5048647;28;20216;-85
2021/11/30 07:25:09;;;;;;;3.40;2.10;;;1.60;81.00;;;;;;5047798;28;20253;-85
2021/11/30 07:27:37;;;;;;;5.70;2.07;;;1.70;80.50;;;;;;5055287;28;20197;-83
2021/11/30 07:30:05;;;;;;;2.70;2.30;;;1.70;80.90;;;;;;5058521;28;20230;-89
2021/11/30 07:32:32;;;;;;;3.60;2.10;;;1.70;79.30;;;;;;5026600;28;20665;-83
2021/11/30 07:34:59;;;;;;;2.67;1.97;;;1.70;79.90;;;;;;5050897;28;20229;-84
2021/11/30 07:37:26;;;;;;;2.97;1.77;;;1.80;78.90;;;;;;5053683;28;20205;-83
2021/11/30 07:39:53;;;;;;;3.97;1.90;;;1.90;78.00;;;;;;5057120;28;20221;-82
2021/11/30 07:42:26;;;;;;;5.00;2.00;;;1.80;78.10;;;;;;5052156;28;20212;-88
2021/11/30 07:44:53;;;;;;;2.73;2.10;;;1.80;79.50;;;;;;5053417;28;20309;-85
2021/11/30 07:47:20;;;;;;;4.40;2.20;;;1.80;79.10;;;;;;5044451;28;20208;-84
2021/11/30 07:49:47;;;;;;;3.77;2.00;;;1.80;80.00;;;;;;5047809;28;20693;-82
2021/11/30 07:52:14;;;;;;;3.27;2.20;;;1.80;78.70;;;;;;5047375;28;20217;-83
2021/11/30 07:54:41;;;;;;;5.67;2.20;;;1.80;79.20;;;;;;5049320;28;21780;-83
2021/11/30 07:57:09;;;;;;;3.17;1.80;;;1.80;80.40;;;;;;5047731;28;20243;-84
2021/11/30 07:59:40;;;;;;;2.77;1.87;;;1.80;80.70;;;;;;5046183;28;20236;-82
2021/11/30 08:02:08;;;;;;;2.20;1.80;;;1.80;80.50;;;;;;5051078;28;20202;-83
2021/11/30 08:04:35;;;;;;;2.47;1.73;;;1.80;81.50;;;;;;5055145;28;20232;-85
2021/11/30 08:07:02;;;;;;;3.83;1.40;;;1.80;80.70;;;;;;5061179;28;20581;-82
2021/11/30 08:09:35;;;;;;;3.43;2.10;;;1.70;81.30;;;;;;5055327;28;20213;-82
2021/11/30 08:12:02;;;;;;;3.67;1.63;;;1.70;81.80;;;;;;5047867;28;20200;-83
2021/11/30 08:14:28;;;;;;;1.60;1.40;;;1.60;81.60;;;;;;5046490;28;20218;-82
2021/11/30 08:16:57;;;;;;;3.80;1.60;;;1.60;81.00;;;;;;5048982;28;20205;-89
2021/11/30 08:19:25;;;;;;;2.53;1.73;;;1.60;80.80;;;;;;5051406;28;20205;-83
2021/11/30 08:21:54;;;;;;;3.10;1.53;;;1.60;80.40;;;;;;5050060;28;20210;-87
2021/11/30 08:24:36;;;;;;;3.70;1.87;;;1.70;78.70;;;;;;5046514;28;21495;-83
2021/11/30 08:27:03;;;;;;;2.90;1.60;;;1.70;79.40;;;;;;5062832;28;20198;-88
2021/11/30 08:29:31;;;;;;;2.27;1.63;;;1.70;77.80;;;;;;5062008;28;20194;-84
2021/11/30 08:32:14;;;;;;;2.23;1.40;;;1.80;76.60;;;;;;5062925;28;20202;-85
2021/11/30 08:34:42;;;;;;;2.23;1.50;;;1.80;77.40;;;;;;5042349;28;20225;-87
2021/11/30 08:37:11;;;;;;;3.97;1.60;;;1.90;77.20;;;;;;5043119;28;20231;-84
2021/11/30 08:43:00;;;;;;;2.40;1.77;;;2.00;76.20;;;;;;5038108;28;20253;-85
2021/11/30 08:45:27;;;;;;;1.60;1.50;;;1.90;76.60;;;;;;5021519;28;20214;-85
2021/11/30 08:47:56;;;;;;;2.00;1.60;;;1.90;76.70;;;;;;5040851;28;20201;-85
2021/11/30 08:50:24;;;;;;;3.30;1.60;;;1.80;78.10;;;;;;5059257;28;20212;-85
2021/11/30 08:52:52;;;;;;;1.87;1.50;;;1.80;79.60;;;;;;5040284;28;20208;-85
2021/11/30 08:55:58;;;;;;;4.57;1.67;;;1.70;79.50;;;;;;5062439;28;20584;-84
2021/11/30 08:59:04;;;;;;;4.03;1.67;;;1.70;80.50;;;;;;5058599;28;20193;-87
2021/11/30 09:01:31;;;;;;;4.50;1.70;;;1.50;82.60;;;;;;5039338;28;20697;-84
2021/11/30 09:04:01;;;;;;;2.67;1.60;;;1.60;83.60;;;;;;5038392;28;20513;-85
2021/11/30 09:06:28;;;;;;;3.13;1.73;;;1.60;84.00;;;;;;5036752;28;20232;-88
2021/11/30 09:09:15;;;;;;;4.00;1.67;;;1.50;86.70;;;;;;5037736;28;21191;-84
2021/11/30 09:11:43;;;;;;;4.13;1.67;;;1.20;89.70;;;;;;5056851;28;20730;-82
2021/11/30 09:14:19;;;;;;;3.90;1.60;;;1.10;91.40;;;;;;5057525;28;20199;-83
2021/11/30 09:16:46;;;;;;;2.23;1.60;;;1.00;92.10;;;;;;5049452;28;20216;-83
2021/11/30 09:19:21;;;;;;;5.93;2.70;;;1.00;92.40;;;;;;5054092;28;20201;-89
2021/11/30 09:21:52;;;;;;;2.87;1.50;;;1.00;92.50;;;;;;5033035;28;20231;-87
2021/11/30 09:24:19;;;;;;;2.10;1.40;;;1.00;93.10;;;;;;5050586;28;20211;-85
2021/11/30 09:26:56;;;;;;;3.10;1.40;;;0.90;93.10;;;;;;5037180;28;20584;-87
2021/11/30 09:29:24;;;;;;;2.97;1.60;;;0.90;92.50;;;;;;5047418;28;20199;-86
2021/11/30 09:31:51;;;;;;;4.30;1.57;;;0.90;92.70;;;;;;5032244;28;20223;-85
2021/11/30 09:34:42;;;;;;;3.47;1.47;;;0.90;93.30;;;;;;5038136;28;20197;-85
2021/11/30 09:37:11;;;;;;;3.43;1.30;;;0.90;93.50;;;;;;5048999;28;20641;-85
2021/11/30 09:39:38;;;;;;;3.20;1.40;;;0.80;93.10;;;;;;5049997;28;20230;-86
2021/11/30 09:42:07;;;;;;;2.07;1.30;;;0.80;92.90;;;;;;5038119;28;20228;-85
2021/11/30 09:44:35;;;;;;;1.87;1.50;;;0.80;93.00;;;;;;5101520;22;20232;-83
2021/11/30 09:47:20;;;;;;;4.70;1.20;;;0.90;92.90;;;;;;5057763;28;20203;-84
2021/11/30 09:49:49;;;;;;;2.03;1.30;;;1.00;92.70;;;;;;5057458;28;20764;-84
2021/11/30 09:52:16;;;;;;;3.93;1.40;;;1.00;93.00;;;;;;5054115;28;20208;-85
2021/11/30 09:54:43;;;;;;;3.67;1.20;;;1.10;93.10;;;;;;5056504;28;20246;-84
2021/11/30 09:57:10;;;;;;;1.10;0.97;;;1.00;93.10;;;;;;5070185;28;20207;-84
2021/11/30 09:59:37;;;;;;;4.50;1.30;;;1.00;93.80;;;;;;5062118;28;20287;-87
2021/11/30 10:02:05;;;;;;;1.77;1.00;;;0.90;93.40;;;;;;5056905;28;20225;-85
2021/11/30 10:05:09;;;;;;;1.73;1.30;;;0.90;94.20;;;;;;5042302;28;20668;-84
2021/11/30 10:07:40;;;;;;;3.73;1.30;;;0.90;94.20;;;;;;5027257;28;20197;-83
2021/11/30 10:10:16;;;;;;;1.90;1.10;;;1.00;94.20;;;;;;5057051;28;20197;-84
2021/11/30 10:12:43;;;;;;;2.43;1.10;;;1.10;93.70;;;;;;5061622;28;20225;-84
2021/11/30 10:15:12;;;;;;;3.13;1.17;;;1.10;93.50;;;;;;5043980;28;20229;-83
2021/11/30 10:17:40;;;;;;;3.60;1.40;;;1.00;93.00;;;;;;5053024;28;20222;-84
2021/11/30 10:20:12;;;;;;;1.40;1.20;;;1.00;94.20;;;;;;5056178;28;20232;-83
2021/11/30 10:22:45;;;;;;;1.53;1.13;;;0.90;94.20;;;;;;5055261;28;20602;-88
2021/11/30 10:28:36;;;;;;;1.33;1.10;;;0.90;95.20;;;;;;5055940;28;20652;-85
2021/11/30 10:31:08;;;;;;;6.30;1.27;;;0.90;95.10;;;;;;5053907;28;20224;-86
2021/11/30 10:33:36;;;;;;;1.47;1.00;;;1.00;94.90;;;;;;5051486;28;20206;-87
2021/11/30 10:36:07;;;;;;;1.10;0.90;;;1.00;94.20;;;;;;5056024;28;20771;-81
2021/11/30 10:38:36;;;;;;;2.93;1.20;;;1.00;94.20;;;;;;5057666;28;20204;-82
2021/11/30 10:41:20;;;;;;;3.70;1.00;;;1.00;94.20;;;;;;5056789;28;20240;-81
2021/11/30 10:43:55;;;;;;;2.73;1.10;;;1.10;94.20;;;;;;5066431;28;20586;-81
2021/11/30 10:46:24;;;;;;;1.70;1.00;;;1.00;94.20;;;;;;5069897;28;20223;-81
2021/11/30 10:48:51;;;;;;;1.07;0.93;;;1.10;94.50;;;;;;5073630;28;20534;-80
2021/11/30 10:58:47;;;;;;;1.57;1.00;;;1.20;93.50;;;;;;5075146;28;20185;-82
2021/11/30 11:01:18;;;;;;;1.97;1.10;;;1.20;93.00;;;;;;5057864;28;20223;-81
2021/11/30 11:03:46;;;;;;;1.50;1.00;;;1.30;92.60;;;;;;5074079;28;20626;-82
2021/11/30 11:09:02;;;;;;;2.70;0.83;;;1.30;92.90;;;;;;5060166;28;20228;-82
2021/11/30 11:11:32;;;;;;;2.40;0.80;;;1.30;93.80;;;;;;5070183;28;20301;-81
2021/11/30 11:14:01;;;;;;;1.20;1.00;;;1.30;94.30;;;;;;5067430;28;20199;-80
2021/11/30 11:16:30;;;;;;;2.37;0.90;;;1.30;94.30;;;;;;5078603;28;20211;-81
2021/11/30 11:19:05;;;;;;;1.00;0.90;;;1.30;94.30;;;;;;5074658;28;20202;-81
2021/11/30 11:21:34;;;;;;;1.00;0.90;;;1.30;94.30;;;;;;5072540;28;20222;-81
2021/11/30 11:24:07;;;;;;;1.00;0.90;;;1.30;94.80;;;;;;5074155;28;20643;-81
2021/11/30 11:43:47;;;;;;;1.83;1.33;;;1.50;94.30;;;;;;5422305;22;20186;-81
2021/11/30 11:46:16;;;;;;;1.83;0.90;;;1.50;93.60;;;;;;5080070;28;20211;-81
2021/11/30 11:48:47;;;;;;;2.30;1.00;;;1.50;93.50;;;;;;5072215;28;20646;-80
2021/11/30 11:54:42;;;;;;;3.97;1.00;;;1.60;92.90;;;;;;5073794;28;20219;-81
2021/11/30 12:00:48;;;;;;;2.07;0.90;;;1.60;93.10;;;;;;5074608;28;20202;-81
2021/11/30 12:07:01;;;;;;;1.03;0.90;;;1.60;92.40;;;;;;5073677;28;20237;-81
2021/11/30 12:09:29;;;;;;;1.23;1.13;;;1.70;92.00;;;;;;5066921;28;20189;-81
2021/11/30 12:11:59;;;;;;;1.20;1.10;;;1.80;91.50;;;;;;5055734;28;20573;-84
2021/11/30 12:14:35;;;;;;;2.27;1.10;;;1.80;91.60;;;;;;5063424;28;20201;-84
2021/11/30 12:17:10;;;;;;;1.20;1.10;;;1.80;91.70;;;;;;5069863;28;20193;-82
2021/11/30 12:19:40;;;;;;;0.93;0.87;;;1.90;91.90;;;;;;5063359;28;20229;-83
2021/11/30 12:22:08;;;;;;;1.07;1.07;;;1.90;91.70;;;;;;5065469;28;20220;-80
2021/11/30 12:24:38;;;;;;;2.23;1.30;;;1.90;91.90;;;;;;5063181;28;20200;-88
2021/11/30 12:27:46;;;;;;;1.33;1.23;;;1.90;92.30;;;;;;5068261;28;20197;-82
2021/11/30 12:30:41;;;;;;;1.10;1.00;;;1.90;92.30;;;;;;5032309;28;20232;-84
2021/11/30 12:33:15;;;;;;;2.83;1.00;;;1.90;92.90;;;;;;5062636;28;20205;-81
2021/11/30 12:35:48;;;;;;;2.70;0.80;;;1.80;93.10;;;;;;5087252;28;20228;-81
2021/11/30 12:38:56;;;;;;;3.23;0.80;;;1.80;93.90;;;;;;5074546;28;20311;-80
2021/11/30 13:18:33;;;;;;;1.70;1.20;;;1.60;95.90;;;;;;5079353;22;20223;-84
2021/11/30 13:21:01;;;;;;;1.00;1.00;;;1.60;95.70;;;;;;5081785;28;20229;-84
2021/11/30 13:23:31;;;;;;;1.57;0.70;;;1.60;95.60;;;;;;5085463;28;20207;-82
2021/11/30 13:25:57;;;;;;;2.10;0.70;;;1.70;95.30;;;;;;5079610;28;20632;-81
2021/11/30 13:38:50;;;;;;;0.77;0.70;;;1.80;94.90;;;;;;5079262;28;20192;-80
2021/11/30 13:41:18;;;;;;;1.73;0.80;;;1.90;94.40;;;;;;5081262;28;20622;-81
2021/11/30 13:43:47;;;;;;;0.87;0.83;;;1.90;94.00;;;;;;5085727;22;20588;-83
2021/11/30 13:46:17;;;;;;;0.87;0.80;;;2.00;93.70;;;;;;5057245;28;20193;-81
2021/11/30 13:59:15;;;;;;;1.07;0.87;;;2.00;93.70;;;;;;5047757;28;20613;-83
2021/11/30 14:01:48;;;;;;;1.00;0.90;;;2.00;93.90;;;;;;5040276;28;20314;-85
2021/11/30 14:04:19;;;;;;;1.03;1.00;;;2.10;93.80;;;;;;5039695;28;20645;-85
2021/11/30 14:06:48;;;;;;;1.70;0.93;;;2.10;93.60;;;;;;5047171;28;20589;-84
2021/11/30 14:09:17;;;;;;;1.87;1.00;;;2.20;93.40;;;;;;5054030;28;20196;-83
2021/11/30 14:11:49;;;;;;;1.90;0.87;;;2.20;93.40;;;;;;5047780;28;20316;-82
2021/11/30 14:14:20;;;;;;;1.10;1.00;;;2.20;92.70;;;;;;5039344;28;20826;-81
2021/11/30 14:16:53;;;;;;;2.57;1.23;;;2.30;92.40;;;;;;5049563;28;20241;-82
2021/11/30 14:19:21;;;;;;;1.50;1.10;;;2.30;92.40;;;;;;5045074;28;20198;-84
2021/11/30 14:22:01;;;;;;;3.40;1.10;;;2.30;92.40;;;;;;5050055;28;20708;-81
2021/11/30 14:24:30;;;;;;;3.03;1.00;;;2.30;92.20;;;;;;5045013;28;20200;-83
2021/11/30 14:27:10;;;;;;;2.57;1.20;;;2.40;92.20;;;;;;5042132;28;20682;-85
2021/11/30 14:29:40;;;;;;;0.90;0.90;;;2.40;92.40;;;;;;5045264;28;20202;-85
2021/11/30 14:32:10;;;;;;;1.27;1.13;;;2.40;92.90;;;;;;5047219;28;20204;-85
2021/11/30 14:34:40;;;;;;;1.30;1.20;;;2.40;92.80;;;;;;5037587;28;20575;-85
2021/11/30 14:37:27;;;;;;;1.63;1.33;;;2.40;92.90;;;;;;5050456;28;20200;-85
2021/11/30 14:40:16;;;;;;;1.50;1.33;;;2.50;92.70;;;;;;5049650;28;20324;-84
2021/11/30 14:42:45;;;;;;;1.80;1.23;;;2.50;92.40;;;;;;5049884;28;20205;-83
2021/11/30 14:45:29;;;;;;;1.60;1.20;;;2.50;92.50;;;;;;5005499;28;20237;-84
2021/11/30 14:48:11;;;;;;;3.07;0.90;;;2.60;92.30;;;;;;5006266;28;20234;-85
2021/11/30 14:50:41;;;;;;;1.93;0.93;;;2.60;92.30;;;;;;5033055;28;20618;-89
2021/11/30 14:53:15;;;;;;;2.40;0.83;;;2.60;92.30;;;;;;5030818;28;20192;-88
2021/11/30 14:55:59;;;;;;;1.40;1.00;;;2.70;91.90;;;;;;5029200;28;20229;-88